Time;durP1;ratioP1;P1;durP2;ratioP2;P2;SDS_P1;SDS_P2;PMS_P1;PMS_P2;Temp;Humidity;BMP_temperature;BMP_pressure;BME280_temperature;BME280_humidity;BME280_pressure;Samples;Min_cycle;Max_cycle;Signal;HPM_P1;HPM_P2
2021/04/10 00:00:18;;;;;;;1.13;1.03;;;;;;;9.30;62.56;100699.66;5113415;28;20440;-72
2021/04/10 00:02:44;;;;;;;0.63;0.63;;;;;;;9.26;62.60;100702.13;5113557;28;20455;-72
2021/04/10 00:05:11;;;;;;;1.53;1.13;;;;;;;9.16;63.80;100704.13;5113060;28;20475;-73
2021/04/10 00:07:37;;;;;;;1.70;0.73;;;;;;;9.04;64.59;100699.94;5113336;28;20943;-72
2021/04/10 00:10:05;;;;;;;1.80;1.33;;;;;;;8.94;65.72;100701.94;5113356;28;20451;-72
2021/04/10 00:12:31;;;;;;;1.17;0.50;;;;;;;8.82;66.91;100710.47;5113534;28;20455;-72
2021/04/10 00:14:57;;;;;;;2.00;1.50;;;;;;;8.65;67.39;100700.09;5112886;28;20601;-72
2021/04/10 00:17:23;;;;;;;2.30;1.00;;;;;;;8.49;67.73;100712.13;5113542;28;20439;-72
2021/04/10 00:19:49;;;;;;;3.23;0.93;;;;;;;8.24;69.31;100715.81;5116685;28;20866;-72
2021/04/10 00:22:15;;;;;;;1.17;1.10;;;;;;;8.16;69.95;100713.72;5117514;28;20463;-73
2021/04/10 00:24:41;;;;;;;0.87;0.70;;;;;;;8.06;70.85;100711.91;5123222;28;20455;-72
2021/04/10 00:27:07;;;;;;;0.83;0.80;;;;;;;8.00;71.83;100715.72;5117438;28;20975;-72
2021/04/10 00:29:34;;;;;;;1.10;1.00;;;;;;;7.97;71.93;100721.66;5117098;28;20444;-72
2021/04/10 00:32:00;;;;;;;4.40;1.23;;;;;;;7.88;71.90;100712.53;5117247;28;20460;-72
2021/04/10 00:34:26;;;;;;;0.80;0.80;;;;;;;7.83;71.87;100724.16;5117013;28;20528;-72
2021/04/10 00:36:52;;;;;;;0.97;0.60;;;;;;;7.86;70.97;100720.13;5117280;28;20443;-72
2021/04/10 00:39:18;;;;;;;2.07;1.00;;;;;;;7.80;70.07;100709.38;5116920;28;20454;-72
2021/04/10 00:41:44;;;;;;;0.67;0.67;;;;;;;7.77;69.31;100719.91;5116810;28;20829;-72
2021/04/10 00:44:10;;;;;;;0.80;0.80;;;;;;;7.73;69.56;100716.97;5116679;28;20455;-72
2021/04/10 00:46:37;;;;;;;2.70;2.50;;;;;;;7.58;71.27;100717.06;5117140;28;20439;-72
2021/04/10 00:49:03;;;;;;;0.70;0.40;;;;;;;7.56;71.20;100701.13;5116781;28;20443;-72
2021/04/10 00:51:29;;;;;;;0.60;0.60;;;;;;;7.47;72.17;100702.81;5116926;28;20997;-72
2021/04/10 00:53:55;;;;;;;0.60;0.60;;;;;;;7.44;72.97;100703.38;5116592;28;20450;-72
2021/04/10 00:56:21;;;;;;;1.77;1.10;;;;;;;7.36;74.01;100697.75;5116899;28;20439;-72
2021/04/10 00:58:47;;;;;;;0.70;0.57;;;;;;;7.38;73.98;100695.59;5116510;28;20470;-71
2021/04/10 01:01:13;;;;;;;0.50;0.50;;;;;;;7.28;75.09;100678.38;5116681;28;20463;-72
2021/04/10 01:03:40;;;;;;;0.70;0.50;;;;;;;7.27;75.63;100679.47;5116472;28;20440;-71
2021/04/10 01:06:06;;;;;;;1.03;1.00;;;;;;;7.26;76.34;100677.03;5116727;28;20439;-72
2021/04/10 01:08:32;;;;;;;0.40;0.33;;;;;;;7.26;76.57;100685.94;5116338;28;20504;-72
2021/04/10 01:11:05;;;;;;;0.60;0.50;;;;;;;7.28;76.68;100682.97;5116563;28;20455;-72
2021/04/10 01:13:41;;;;;;;0.60;0.53;;;;;;;7.27;77.18;100676.78;5116079;28;20459;-71
2021/04/10 01:16:12;;;;;;;0.97;0.87;;;;;;;7.24;77.39;100671.94;5115453;28;20513;-71
2021/04/10 01:18:50;;;;;;;0.60;0.60;;;;;;;7.25;77.53;100673.53;5115916;28;20889;-71
2021/04/10 01:21:27;;;;;;;0.50;0.47;;;;;;;7.20;78.00;100680.84;5116368;28;20466;-72
2021/04/10 01:24:46;;;;;;;0.70;0.70;;;;;;;7.24;78.17;100682.72;5116180;28;20521;-71
2021/04/10 01:27:33;;;;;;;0.63;0.63;;;;;;;7.17;78.78;100695.69;5053324;28;20442;-72
2021/04/10 01:30:05;;;;;;;1.23;0.60;;;;;;;7.15;78.96;100680.88;5108439;28;20843;-72
2021/04/10 01:32:35;;;;;;;4.47;0.90;;;;;;;7.15;78.19;100670.91;5115715;28;20459;-71
2021/04/10 01:35:07;;;;;;;1.63;1.53;;;;;;;7.01;78.24;100673.38;5115403;28;20483;-72
2021/04/10 01:37:36;;;;;;;1.70;1.60;;;;;;;7.00;78.50;100670.97;5116052;28;20424;-71
2021/04/10 01:40:05;;;;;;;2.23;1.10;;;;;;;7.00;77.54;100669.06;5095647;28;20436;-72
2021/04/10 01:42:33;;;;;;;0.50;0.40;;;;;;;6.95;77.11;100674.50;5077615;28;20842;-72
2021/04/10 01:45:02;;;;;;;2.73;0.87;;;;;;;6.92;77.34;100674.22;5115631;28;20447;-70
2021/04/10 01:47:30;;;;;;;0.80;0.80;;;;;;;6.87;77.74;100682.31;5115914;28;20436;-72
2021/04/10 01:49:57;;;;;;;0.83;0.77;;;;;;;6.86;78.55;100676.09;5115261;28;20979;-72
2021/04/10 01:52:24;;;;;;;3.40;1.40;;;;;;;6.89;79.21;100693.59;5115455;28;20997;-69
2021/04/10 01:54:51;;;;;;;0.80;0.80;;;;;;;6.77;78.09;100680.44;5115314;28;20479;-71
2021/04/10 01:57:20;;;;;;;1.90;1.07;;;;;;;6.71;77.88;100679.66;5115480;28;20996;-72
2021/04/10 01:59:48;;;;;;;1.97;0.53;;;;;;;6.63;78.62;100684.78;5115427;28;20469;-72
2021/04/10 02:02:15;;;;;;;0.50;0.50;;;;;;;6.56;79.92;100682.38;5115563;28;20491;-72
2021/04/10 02:04:45;;;;;;;1.33;0.70;;;;;;;6.50;81.03;100688.84;5115179;28;20440;-72
2021/04/10 02:07:12;;;;;;;1.07;0.70;;;;;;;6.55;81.07;100692.34;5115252;28;20443;-72
2021/04/10 02:09:40;;;;;;;7.90;1.33;;;;;;;6.56;82.34;100701.22;5119323;28;20431;-72
2021/04/10 02:12:08;;;;;;;0.40;0.30;;;;;;;6.56;82.59;100701.22;5117225;28;20537;-72
2021/04/10 02:14:34;;;;;;;0.50;0.40;;;;;;;6.61;82.78;100701.22;5115215;28;20475;-72
2021/04/10 02:17:01;;;;;;;1.27;1.17;;;;;;;6.69;82.34;100708.75;5115379;28;20815;-72
2021/04/10 02:19:28;;;;;;;0.80;0.80;;;;;;;6.80;81.79;100710.31;5114738;28;20466;-72
2021/04/10 02:21:53;;;;;;;1.00;1.00;;;;;;;6.87;81.52;100703.84;5115165;28;20460;-72
2021/04/10 02:24:19;;;;;;;0.67;0.50;;;;;;;6.80;82.12;100707.63;5115073;28;20440;-72
2021/04/10 02:26:45;;;;;;;0.57;0.57;;;;;;;6.76;82.32;100711.13;5115119;28;20436;-72
2021/04/10 02:29:12;;;;;;;0.77;0.67;;;;;;;6.85;81.88;100712.19;5114842;28;20451;-72
2021/04/10 02:31:45;;;;;;;1.67;1.07;;;;;;;6.89;81.48;100712.47;5114955;28;20466;-72
2021/04/10 02:34:16;;;;;;;1.73;1.20;;;;;;;6.93;81.21;100718.91;5114396;28;20943;-72
2021/04/10 02:36:44;;;;;;;0.80;0.63;;;;;;;6.88;79.61;100724.31;5114996;28;20435;-72
2021/04/10 02:39:11;;;;;;;0.40;0.30;;;;;;;6.92;79.15;100723.50;5114671;28;20448;-72
2021/04/10 02:41:40;;;;;;;1.30;1.03;;;;;;;6.93;79.25;100732.38;5113868;28;20467;-72
2021/04/10 02:44:09;;;;;;;1.23;1.03;;;;;;;6.92;79.68;100733.47;5114557;28;20447;-72
2021/04/10 02:46:37;;;;;;;0.50;0.50;;;;;;;6.90;79.61;100724.84;5114453;28;21061;-72
2021/04/10 02:49:06;;;;;;;0.53;0.53;;;;;;;6.88;79.16;100721.63;5114143;28;20943;-72
2021/04/10 02:51:37;;;;;;;0.50;0.47;;;;;;;6.90;79.35;100719.44;5114567;28;20467;-72
2021/04/10 02:54:05;;;;;;;0.80;0.40;;;;;;;6.94;78.82;100718.63;5114385;28;20440;-72
2021/04/10 02:56:35;;;;;;;0.57;0.47;;;;;;;6.91;79.40;100704.94;5114598;28;20488;-72
2021/04/10 02:59:02;;;;;;;0.60;0.40;;;;;;;6.84;79.44;100699.81;5114003;28;20439;-72
2021/04/10 03:01:30;;;;;;;0.57;0.57;;;;;;;6.89;80.07;100707.06;5114092;28;20463;-72
2021/04/10 03:03:57;;;;;;;0.60;0.40;;;;;;;6.91;80.70;100702.25;5114173;28;20439;-72
2021/04/10 03:06:24;;;;;;;0.83;0.80;;;;;;;6.91;81.44;100697.66;5114401;28;20443;-72
2021/04/10 03:08:52;;;;;;;0.40;0.40;;;;;;;6.89;81.91;100707.06;5113907;28;20982;-72
2021/04/10 03:11:19;;;;;;;1.77;1.67;;;;;;;6.90;82.40;100716.75;5114017;28;20485;-72
2021/04/10 03:13:45;;;;;;;0.50;0.40;;;;;;;6.86;83.03;100711.09;5113975;28;20447;-72
2021/04/10 03:16:11;;;;;;;1.13;1.07;;;;;;;6.95;83.25;100714.03;5114088;28;20479;-72
2021/04/10 03:18:39;;;;;;;0.50;0.50;;;;;;;6.97;83.06;100714.59;5113726;28;20944;-72
2021/04/10 03:21:06;;;;;;;0.80;0.80;;;;;;;6.92;84.17;100717.31;5113908;28;20471;-72
2021/04/10 03:23:32;;;;;;;0.50;0.50;;;;;;;6.87;84.93;100718.13;5113852;28;20451;-71
2021/04/10 03:26:01;;;;;;;0.50;0.47;;;;;;;6.95;85.04;100714.03;5114038;28;20436;-72
2021/04/10 03:28:30;;;;;;;1.30;1.20;;;;;;;6.98;84.92;100719.69;5113484;28;20459;-72
2021/04/10 03:30:57;;;;;;;0.50;0.50;;;;;;;7.00;86.04;100724.84;5113930;28;20513;-72
2021/04/10 03:33:23;;;;;;;0.50;0.40;;;;;;;7.00;86.51;100724.84;5113640;28;20435;-72
2021/04/10 03:35:50;;;;;;;0.57;0.57;;;;;;;6.94;86.66;100733.97;5113795;28;21009;-71
2021/04/10 03:38:16;;;;;;;1.53;1.43;;;;;;;6.89;86.44;100734.81;5113310;28;20443;-72
2021/04/10 03:40:42;;;;;;;5.97;1.27;;;;;;;6.87;87.22;100741.56;5113442;28;21090;-72
2021/04/10 03:43:08;;;;;;;0.50;0.40;;;;;;;6.84;87.65;100742.88;5113579;28;20447;-72
2021/04/10 03:45:34;;;;;;;1.77;1.23;;;;;;;6.86;88.60;100742.59;5113836;28;20432;-71
2021/04/10 03:48:00;;;;;;;1.30;1.20;;;;;;;6.81;88.70;100744.22;5113305;28;20828;-71
2021/04/10 03:50:26;;;;;;;1.30;0.70;;;;;;;6.79;88.54;100751.78;5113423;28;20439;-72
2021/04/10 03:52:52;;;;;;;0.50;0.40;;;;;;;6.75;88.20;100756.09;5112906;28;20463;-72
2021/04/10 03:55:19;;;;;;;1.23;0.80;;;;;;;6.73;88.91;100760.97;5119727;28;20488;-72
2021/04/10 03:57:45;;;;;;;0.40;0.40;;;;;;;6.77;89.03;100772.78;5113855;28;20439;-71
2021/04/10 04:00:12;;;;;;;0.40;0.40;;;;;;;6.76;89.79;100768.47;5114177;28;20435;-71
2021/04/10 04:02:39;;;;;;;3.13;2.73;;;;;;;6.76;90.44;100768.47;5112959;28;20463;-72
2021/04/10 04:05:06;;;;;;;0.77;0.57;;;;;;;6.77;91.23;100770.09;5113659;28;20472;-72
2021/04/10 04:07:32;;;;;;;2.53;1.00;;;;;;;6.80;91.19;100768.75;5113315;28;20439;-72
2021/04/10 04:09:58;;;;;;;1.17;0.77;;;;;;;6.80;91.88;100774.94;5113556;28;20814;-72
2021/04/10 04:12:24;;;;;;;0.90;0.90;;;;;;;6.80;92.79;100780.31;5113182;28;20459;-72
2021/04/10 04:14:50;;;;;;;0.40;0.40;;;;;;;6.85;94.28;100786.78;5113456;28;20559;-72
2021/04/10 04:17:16;;;;;;;0.60;0.60;;;;;;;6.78;94.95;100781.69;5113199;28;20463;-72
2021/04/10 04:19:42;;;;;;;0.47;0.43;;;;;;;6.73;95.71;100779.78;5113130;28;20951;-72
2021/04/10 04:22:08;;;;;;;1.63;0.70;;;;;;;6.72;96.33;100783.53;5113093;28;20470;-71
2021/04/10 04:24:34;;;;;;;1.43;0.57;;;;;;;6.72;96.81;100788.13;5113131;28;20443;-71
2021/04/10 04:27:00;;;;;;;1.33;1.23;;;;;;;6.68;97.20;100793.22;5113384;28;20442;-71
2021/04/10 04:29:26;;;;;;;0.50;0.40;;;;;;;6.54;96.87;100792.97;5113344;28;20492;-71
2021/04/10 04:31:52;;;;;;;0.50;0.40;;;;;;;6.49;97.43;100786.78;5113570;28;20460;-71
2021/04/10 04:34:18;;;;;;;0.93;0.80;;;;;;;6.45;97.46;100791.09;5113116;28;20444;-71
2021/04/10 04:36:45;;;;;;;2.00;1.17;;;;;;;6.38;97.87;100802.13;5113034;28;20943;-71
2021/04/10 04:39:11;;;;;;;2.83;0.90;;;;;;;6.38;98.76;100798.63;5113014;28;20452;-71
2021/04/10 04:41:37;;;;;;;0.50;0.50;;;;;;;6.39;98.57;100802.94;5113232;28;20574;-71
2021/04/10 04:44:03;;;;;;;1.23;0.40;;;;;;;6.37;99.03;100810.44;5112797;28;20439;-71
2021/04/10 04:46:29;;;;;;;1.77;1.03;;;;;;;6.32;99.14;100808.56;5113577;28;20436;-71
2021/04/10 04:48:55;;;;;;;1.00;1.00;;;;;;;6.35;99.49;100809.91;5112942;28;20447;-70
2021/04/10 04:51:22;;;;;;;1.73;0.53;;;;;;;6.31;99.14;100809.63;5113125;28;20463;-71
2021/04/10 04:53:49;;;;;;;0.60;0.60;;;;;;;6.25;99.21;100810.72;5112883;28;20492;-71
2021/04/10 04:56:15;;;;;;;1.20;1.10;;;;;;;6.27;99.67;100816.63;5113092;28;20483;-70
2021/04/10 04:58:41;;;;;;;3.67;1.93;;;;;;;6.30;100.00;100818.78;5112538;28;20455;-70
2021/04/10 05:01:06;;;;;;;0.80;0.67;;;;;;;6.34;100.00;100827.13;5112644;28;20475;-70
2021/04/10 05:03:32;;;;;;;0.60;0.57;;;;;;;6.31;100.00;100831.97;5113126;28;20447;-70
2021/04/10 05:05:58;;;;;;;0.57;0.57;;;;;;;6.29;100.00;100827.94;5116417;28;20450;-70
2021/04/10 05:08:24;;;;;;;0.70;0.40;;;;;;;6.34;100.00;100833.31;5116935;28;20484;-70
2021/04/10 05:10:57;;;;;;;2.20;1.17;;;;;;;6.38;100.00;100839.78;5116963;28;20533;-70
2021/04/10 05:13:23;;;;;;;3.27;1.13;;;;;;;6.43;100.00;100839.00;5116628;28;20435;-70
2021/04/10 05:15:49;;;;;;;0.60;0.50;;;;;;;6.46;100.00;100838.44;5116176;28;20558;-70
2021/04/10 05:18:15;;;;;;;1.13;0.90;;;;;;;6.41;100.00;100846.50;5116552;28;20994;-70
2021/04/10 05:20:41;;;;;;;0.80;0.67;;;;;;;6.42;100.00;100853.50;5115568;28;20456;-70
2021/04/10 05:23:06;;;;;;;3.30;3.10;;;;;;;6.42;100.00;100842.72;5116429;28;20448;-70
2021/04/10 05:25:33;;;;;;;2.03;1.63;;;;;;;6.46;100.00;100854.56;5116095;28;20813;-70
2021/04/10 05:28:00;;;;;;;3.40;2.23;;;;;;;6.42;100.00;100853.50;5116317;28;20447;-70
2021/04/10 05:30:26;;;;;;;1.17;1.00;;;;;;;6.42;100.00;100856.19;5115737;28;20983;-70
2021/04/10 05:32:52;;;;;;;0.67;0.67;;;;;;;6.43;100.00;100860.50;5116153;28;20500;-70
2021/04/10 05:35:18;;;;;;;0.60;0.50;;;;;;;6.41;100.00;100854.56;5115851;28;20479;-70
2021/04/10 05:37:44;;;;;;;2.57;2.37;;;;;;;6.43;100.00;100855.94;5116159;28;20444;-70
2021/04/10 05:40:11;;;;;;;0.90;0.90;;;;;;;6.37;100.00;100866.94;5121526;28;20419;-70
2021/04/10 05:42:37;;;;;;;1.40;0.83;;;;;;;6.40;100.00;100861.03;5116144;28;20489;-71
2021/04/10 05:45:05;;;;;;;8.20;1.50;;;;;;;6.37;100.00;100861.56;5115626;28;20436;-73
2021/04/10 05:47:31;;;;;;;2.80;2.60;;;;;;;6.35;100.00;100863.72;5114974;28;20819;-69
2021/04/10 05:49:57;;;;;;;1.50;1.40;;;;;;;6.28;100.00;100870.16;5115267;28;20458;-68
2021/04/10 05:52:23;;;;;;;1.00;1.00;;;;;;;6.30;100.00;100861.81;5115337;28;20470;-69
2021/04/10 05:54:49;;;;;;;1.33;1.23;;;;;;;6.37;100.00;100861.56;5115746;28;20483;-75
2021/04/10 05:57:15;;;;;;;0.60;0.60;;;;;;;6.51;100.00;100873.44;5115573;28;20551;-70
2021/04/10 05:59:41;;;;;;;0.93;0.80;;;;;;;6.58;100.00;100874.78;5115726;28;20493;-70
2021/04/10 06:02:08;;;;;;;2.43;2.00;;;;;;;6.62;100.00;100869.69;5115288;28;20904;-70
2021/04/10 06:04:34;;;;;;;1.97;1.63;;;;;;;6.64;100.00;100872.09;5115307;28;20819;-71
2021/04/10 06:07:00;;;;;;;1.33;1.23;;;;;;;6.66;100.00;100875.34;5115576;28;20451;-70
2021/04/10 06:09:26;;;;;;;1.97;1.87;;;;;;;6.60;100.00;100879.91;5115562;28;20435;-71
2021/04/10 06:11:52;;;;;;;1.03;1.00;;;;;;;6.42;100.00;100891.16;5114881;28;20489;-70
2021/04/10 06:14:19;;;;;;;2.30;1.70;;;;;;;6.38;100.00;100890.09;5115730;28;20447;-70
2021/04/10 06:16:46;;;;;;;0.50;0.50;;;;;;;6.24;100.00;100893.28;5114795;28;20440;-71
2021/04/10 06:19:12;;;;;;;1.90;0.60;;;;;;;6.16;100.00;100901.06;5115214;28;20499;-71
2021/04/10 06:21:38;;;;;;;3.57;1.03;;;;;;;6.01;100.00;100907.16;5115137;28;20463;-70
2021/04/10 06:24:05;;;;;;;0.80;0.80;;;;;;;5.88;100.00;100907.63;5115267;28;20435;-70
2021/04/10 06:26:31;;;;;;;3.50;1.30;;;;;;;5.85;100.00;100913.53;5115026;28;20448;-70
2021/04/10 06:28:57;;;;;;;1.03;0.70;;;;;;;5.75;100.00;100915.06;5115194;28;20473;-70
2021/04/10 06:31:23;;;;;;;4.37;2.43;;;;;;;5.81;100.00;100905.97;5114803;28;20463;-72
2021/04/10 06:33:48;;;;;;;0.93;0.90;;;;;;;5.91;100.00;100912.47;5114794;28;20940;-69
2021/04/10 06:36:15;;;;;;;2.67;1.43;;;;;;;5.91;100.00;100915.97;5114745;28;20479;-70
2021/04/10 06:38:41;;;;;;;2.30;1.77;;;;;;;6.00;100.00;100909.06;5114980;28;20435;-71
2021/04/10 06:41:07;;;;;;;2.53;1.03;;;;;;;6.08;100.00;100915.81;5114573;28;20470;-71
2021/04/10 06:43:33;;;;;;;1.30;1.20;;;;;;;6.06;100.00;100920.63;5114900;28;20435;-71
2021/04/10 06:45:59;;;;;;;0.50;0.50;;;;;;;6.05;100.00;100919.81;5114462;28;20970;-71
2021/04/10 06:48:27;;;;;;;0.60;0.50;;;;;;;6.15;100.00;100919.06;5114512;28;20936;-71
2021/04/10 06:50:53;;;;;;;0.60;0.53;;;;;;;6.12;100.00;100921.47;5114588;28;20486;-71
2021/04/10 06:53:21;;;;;;;2.17;1.47;;;;;;;6.18;100.00;100921.22;5114701;28;20440;-71
2021/04/10 06:55:50;;;;;;;0.93;0.80;;;;;;;6.21;100.00;100915.31;5113704;28;20487;-71
2021/04/10 06:58:21;;;;;;;0.43;0.43;;;;;;;6.26;100.00;100918.03;5114612;28;20497;-71
2021/04/10 07:00:52;;;;;;;0.60;0.60;;;;;;;6.39;100.00;100924.81;5113874;28;20924;-71
2021/04/10 07:03:19;;;;;;;1.03;1.03;;;;;;;6.43;100.00;100927.78;5112405;28;20470;-71
2021/04/10 07:05:45;;;;;;;1.00;0.80;;;;;;;6.49;100.00;100926.69;5113704;28;20436;-71
2021/04/10 07:08:11;;;;;;;1.00;0.73;;;;;;;6.57;100.00;100936.97;5114119;28;20446;-71
2021/04/10 07:10:38;;;;;;;2.03;1.93;;;;;;;6.67;100.00;100934.28;5113959;28;20448;-71
2021/04/10 07:13:04;;;;;;;1.67;1.50;;;;;;;6.60;100.00;100939.13;5113653;28;20964;-71
2021/04/10 07:15:31;;;;;;;3.60;3.30;;;;;;;6.57;100.00;100936.97;5113932;28;20568;-71
2021/04/10 07:17:57;;;;;;;0.50;0.50;;;;;;;6.60;100.00;100947.19;5113812;28;20440;-71
2021/04/10 07:20:25;;;;;;;0.70;0.70;;;;;;;6.61;100.00;100938.03;5113407;28;20956;-71
2021/04/10 07:22:59;;;;;;;2.23;1.13;;;;;;;6.50;100.00;100942.56;5113643;28;20483;-71
2021/04/10 07:25:25;;;;;;;0.67;0.67;;;;;;;6.57;100.00;100943.16;5120188;28;20442;-71
2021/04/10 07:27:53;;;;;;;0.93;0.80;;;;;;;6.58;100.00;100941.25;5113981;28;20584;-71
2021/04/10 07:30:19;;;;;;;1.93;1.83;;;;;;;6.68;100.00;100933.19;5114030;28;20803;-71
2021/04/10 07:32:45;;;;;;;3.17;0.87;;;;;;;6.83;100.00;100940.50;5113638;28;20464;-71
2021/04/10 07:35:13;;;;;;;1.00;0.50;;;;;;;6.85;100.00;100940.22;5113591;28;20483;-71
2021/04/10 07:37:40;;;;;;;1.70;1.60;;;;;;;6.83;100.00;100938.63;5113470;28;20466;-70
2021/04/10 07:40:09;;;;;;;2.83;1.40;;;;;;;6.89;100.00;100946.72;5113961;28;20424;-71
2021/04/10 07:42:38;;;;;;;1.57;1.47;;;;;;;6.82;100.00;100946.97;5113539;28;20463;-71
2021/04/10 07:45:06;;;;;;;1.37;1.27;;;;;;;7.00;100.00;100956.44;5113817;28;20439;-71
2021/04/10 07:47:34;;;;;;;0.67;0.67;;;;;;;7.19;100.00;100948.63;5113755;28;20448;-71
2021/04/10 07:50:19;;;;;;;1.50;0.97;;;;;;;7.33;100.00;100945.09;5113806;28;20446;-71
2021/04/10 07:52:45;;;;;;;1.53;1.07;;;;;;;7.54;100.00;100953.19;5113162;28;20848;-71
2021/04/10 07:55:36;;;;;;;0.90;0.90;;;;;;;7.68;100.00;100956.13;5113597;28;20850;-71
2021/04/10 07:58:22;;;;;;;1.33;1.23;;;;;;;7.81;99.97;100961.75;5113170;28;20450;-71
2021/04/10 08:00:49;;;;;;;2.67;1.63;;;;;;;7.91;99.47;100965.50;5113583;28;20439;-71
2021/04/10 08:03:22;;;;;;;1.73;1.30;;;;;;;7.96;99.03;100974.41;5113103;28;20955;-71
2021/04/10 08:05:48;;;;;;;1.30;1.30;;;;;;;7.97;98.65;100976.03;5113755;28;20443;-71
2021/04/10 08:08:18;;;;;;;24.83;1.70;;;;;;;7.96;98.35;100973.59;5113383;28;20444;-71
2021/04/10 08:10:45;;;;;;;0.63;0.63;;;;;;;8.00;98.25;100975.47;5103135;28;20440;-71
2021/04/10 08:13:11;;;;;;;1.00;0.90;;;;;;;8.10;98.28;100988.09;5097715;28;20432;-71
2021/04/10 08:15:37;;;;;;;2.43;0.90;;;;;;;8.09;98.14;100979.22;5113465;28;20483;-71
2021/04/10 08:18:21;;;;;;;1.53;0.67;;;;;;;8.08;97.76;100984.88;5112896;28;20837;-71
2021/04/10 08:20:49;;;;;;;2.53;1.00;;;;;;;8.25;97.91;100985.38;5112938;28;20494;-71
2021/04/10 08:23:19;;;;;;;1.23;1.00;;;;;;;8.42;97.07;100992.38;5112062;28;21020;-71
2021/04/10 08:25:46;;;;;;;1.20;1.10;;;;;;;8.48;96.50;100991.25;5113360;28;20440;-72
2021/04/10 08:28:13;;;;;;;1.80;1.57;;;;;;;8.58;96.28;100994.72;5113405;28;20443;-71
2021/04/10 08:30:40;;;;;;;1.93;1.83;;;;;;;8.70;94.68;101004.38;5112611;28;20444;-71
2021/04/10 08:33:07;;;;;;;1.13;0.60;;;;;;;8.80;94.26;101009.72;5112047;28;20440;-71
2021/04/10 08:35:33;;;;;;;1.87;1.70;;;;;;;8.82;93.71;101021.88;5113299;28;20490;-72
2021/04/10 08:38:01;;;;;;;6.00;3.47;;;;;;;8.86;93.53;101015.94;5112525;28;20447;-72
2021/04/10 08:40:29;;;;;;;2.00;1.37;;;;;;;8.71;93.53;101016.78;5116268;28;20450;-72
2021/04/10 08:42:57;;;;;;;1.40;1.30;;;;;;;8.55;93.37;101016.88;5116651;28;20956;-72
2021/04/10 08:45:24;;;;;;;1.20;0.90;;;;;;;8.65;94.42;101016.03;5116839;28;20454;-72
2021/04/10 08:47:50;;;;;;;1.10;0.90;;;;;;;8.74;93.78;101025.16;5117416;28;20428;-72
2021/04/10 08:50:18;;;;;;;3.73;2.70;;;;;;;8.93;94.42;101025.31;5116819;28;20443;-71
2021/04/10 08:52:44;;;;;;;2.00;1.27;;;;;;;8.96;93.45;101023.97;5116951;28;20458;-72
2021/04/10 08:55:13;;;;;;;2.20;1.07;;;;;;;9.02;93.38;101025.53;5116685;28;20483;-72
2021/04/10 08:57:40;;;;;;;2.47;1.60;;;;;;;9.14;93.77;101028.72;5116784;28;20431;-72
2021/04/10 09:00:21;;;;;;;1.57;0.83;;;;;;;9.27;93.49;101027.28;5116174;28;20496;-71
2021/04/10 09:02:52;;;;;;;5.00;1.20;;;;;;;9.20;91.66;101033.00;5116022;28;20459;-71
2021/04/10 09:05:20;;;;;;;0.90;0.80;;;;;;;9.41;91.60;101033.66;5113401;28;20443;-74
2021/04/10 09:08:01;;;;;;;1.43;1.30;;;;;;;9.62;91.73;101030.81;5116469;28;20819;-71
2021/04/10 09:11:03;;;;;;;0.60;0.40;;;;;;;9.68;89.71;101029.66;5116456;28;20458;-74
2021/04/10 09:13:38;;;;;;;2.93;1.97;;;;;;;9.76;89.35;101026.34;5117154;28;20447;-72
2021/04/10 09:16:24;;;;;;;0.50;0.50;;;;;;;9.94;88.85;101031.03;5116249;28;20832;-73
2021/04/10 09:18:52;;;;;;;0.60;0.60;;;;;;;10.08;87.70;101028.47;5116252;28;20443;-72
2021/04/10 09:21:23;;;;;;;1.10;0.83;;;;;;;10.23;86.80;101019.41;5116411;28;20990;-73
2021/04/10 09:23:49;;;;;;;0.87;0.87;;;;;;;10.09;84.87;101030.91;5115358;28;20812;-71
2021/04/10 09:26:18;;;;;;;0.90;0.70;;;;;;;10.22;84.17;101028.59;5116381;28;20484;-72
2021/04/10 09:29:15;;;;;;;0.70;0.70;;;;;;;10.17;82.06;101032.16;5113617;28;20831;-71
2021/04/10 09:31:44;;;;;;;1.67;0.63;;;;;;;10.39;81.70;101036.28;5116162;28;20459;-72
2021/04/10 09:34:43;;;;;;;1.17;1.07;;;;;;;10.59;82.36;101027.94;5115964;28;20444;-72
2021/04/10 09:37:10;;;;;;;1.33;0.90;;;;;;;10.70;82.62;101044.84;5103201;28;20449;-71
2021/04/10 09:39:54;;;;;;;0.63;0.63;;;;;;;10.96;83.14;101039.91;5115942;28;20939;-72
2021/04/10 09:42:45;;;;;;;0.70;0.70;;;;;;;11.18;81.30;101042.84;5115846;28;20943;-71
2021/04/10 09:45:13;;;;;;;1.13;0.60;;;;;;;11.28;80.46;101052.72;5116160;28;20424;-72
2021/04/10 09:48:18;;;;;;;2.33;0.73;;;;;;;11.37;79.59;101049.03;5115731;28;20500;-72
2021/04/10 09:50:46;;;;;;;0.63;0.63;;;;;;;11.06;76.35;101054.13;5114662;28;20864;-71
2021/04/10 09:53:14;;;;;;;0.90;0.90;;;;;;;11.33;78.43;101050.75;5115901;28;20439;-72
2021/04/10 09:55:43;;;;;;;2.80;1.00;;;;;;;11.63;77.77;101056.78;5115207;28;20856;-72
2021/04/10 09:58:10;;;;;;;0.60;0.40;;;;;;;11.69;75.98;101058.34;5115757;28;20443;-72
2021/04/10 10:00:39;;;;;;;1.00;0.60;;;;;;;11.79;72.11;101063.59;5115445;28;20440;-71
2021/04/10 10:03:07;;;;;;;1.90;1.30;;;;;;;11.91;74.42;101065.03;5115815;28;20452;-71
2021/04/10 10:05:35;;;;;;;0.70;0.70;;;;;;;11.96;75.54;101054.91;5115378;28;20432;-72
2021/04/10 10:08:03;;;;;;;0.60;0.60;;;;;;;11.94;72.83;101054.41;5115607;28;20446;-71
2021/04/10 10:10:34;;;;;;;0.50;0.40;;;;;;;11.43;69.81;101052.50;5115208;28;20463;-71
2021/04/10 10:13:01;;;;;;;1.40;0.63;;;;;;;11.59;71.96;101050.34;5115163;28;20466;-71
2021/04/10 10:15:28;;;;;;;2.30;0.90;;;;;;;11.84;74.35;101054.59;5114996;28;20492;-71
2021/04/10 10:17:54;;;;;;;0.77;0.77;;;;;;;11.96;73.78;101054.13;5112207;28;20948;-72
2021/04/10 10:20:20;;;;;;;0.93;0.60;;;;;;;12.14;73.23;101055.97;5113394;28;20617;-71
2021/04/10 10:22:46;;;;;;;0.60;0.60;;;;;;;12.36;73.04;101058.78;5105663;28;20476;-72
2021/04/10 10:25:13;;;;;;;1.63;0.90;;;;;;;12.21;72.00;101069.13;5095191;28;20437;-72
2021/04/10 10:27:42;;;;;;;0.50;0.47;;;;;;;12.22;71.41;101074.28;5111075;28;20444;-72
2021/04/10 10:30:15;;;;;;;0.60;0.60;;;;;;;12.22;71.46;101074.28;5110626;28;20439;-72
2021/04/10 10:32:44;;;;;;;0.60;0.60;;;;;;;12.14;71.38;101077.69;5114939;28;20474;-71
2021/04/10 10:35:11;;;;;;;1.83;1.13;;;;;;;11.92;70.99;101080.25;5114574;28;20511;-72
2021/04/10 10:37:37;;;;;;;0.90;0.70;;;;;;;12.00;71.72;101076.84;5114726;28;20439;-72
2021/04/10 10:40:04;;;;;;;1.23;1.10;;;;;;;12.07;71.55;101079.97;5115190;28;20505;-72
2021/04/10 10:42:30;;;;;;;0.93;0.77;;;;;;;11.90;69.38;101087.88;5114997;28;20470;-72
2021/04/10 10:44:57;;;;;;;4.00;0.50;;;;;;;11.69;68.96;101085.47;5114957;28;20443;-72
2021/04/10 10:47:24;;;;;;;1.27;0.73;;;;;;;11.56;69.07;101088.94;5114985;28;20435;-72
2021/04/10 10:49:51;;;;;;;2.30;0.70;;;;;;;11.57;70.61;101096.78;5114626;28;20440;-72
2021/04/10 10:52:17;;;;;;;1.00;0.90;;;;;;;11.50;70.35;101090.91;5114650;28;20464;-72
2021/04/10 10:54:44;;;;;;;1.53;0.80;;;;;;;11.24;69.48;101087.75;5114993;28;20469;-72
2021/04/10 10:57:11;;;;;;;1.37;0.80;;;;;;;11.36;70.39;101090.03;5114327;28;20479;-72
2021/04/10 10:59:37;;;;;;;1.53;0.97;;;;;;;11.48;72.03;101081.47;5122381;28;20412;-72
2021/04/10 11:02:04;;;;;;;5.57;1.00;;;;;;;11.59;71.98;101088.31;5113809;28;20975;-72
2021/04/10 11:04:35;;;;;;;1.13;1.03;;;;;;;11.65;71.07;101086.38;5113337;28;20439;-71
2021/04/10 11:07:03;;;;;;;0.73;0.73;;;;;;;11.67;70.70;101086.84;5114112;28;20432;-72
2021/04/10 11:09:31;;;;;;;2.20;1.10;;;;;;;11.81;69.70;101096.66;5114284;28;20447;-71
2021/04/10 11:12:00;;;;;;;0.73;0.43;;;;;;;11.78;67.77;101097.25;5114352;28;20484;-71
2021/04/10 11:14:27;;;;;;;19.33;0.83;;;;;;;11.62;65.42;101099.41;5114131;28;20432;-72
2021/04/10 11:16:54;;;;;;;0.70;0.40;;;;;;;11.55;66.99;101103.59;5113810;28;21006;-72
2021/04/10 11:19:29;;;;;;;0.50;0.40;;;;;;;11.37;67.72;101100.59;5113865;28;20466;-72
2021/04/10 11:21:57;;;;;;;0.80;0.77;;;;;;;11.18;67.37;101110.63;5114578;28;20455;-72
2021/04/10 11:24:23;;;;;;;1.80;0.93;;;;;;;11.11;69.27;101108.28;5114076;28;20448;-72
2021/04/10 11:26:54;;;;;;;1.00;0.57;;;;;;;10.96;69.75;101113.09;5114181;28;20932;-72
2021/04/10 11:29:28;;;;;;;0.60;0.50;;;;;;;10.78;69.79;101107.34;5114225;28;20441;-72
2021/04/10 11:32:18;;;;;;;1.40;1.30;;;;;;;10.84;69.52;101118.91;5114280;28;20510;-72
2021/04/10 11:34:59;;;;;;;1.83;1.00;;;;;;;10.80;70.09;101129.56;5114076;28;20517;-72